Kite, Kentucky
Current Conditions -  °F | °C
As of 5:35 AM on Friday 24 Oct 2014 (Local Time) from KPBX Reporting Station
Haze Haze  
Wind Chill: 40°   Ceiling: 200
Heat Index: 40°   Visibility: 1mi
Dew Point: 39°   Wind: 0mph
Humidity: 99%   Direction: NA
Pressure: 30.12"   Gusts: NA
Location:  37.32°N, 82.8°W
Report Text: KPBX 240935Z AUTO 00000KT 1SM BR BKN002 04/04 A3012 RMK AO2 T00420040
Loading
Personal Weather Stations






























Interactive Weather Map
Tropical Storm Tracking
New forecast layout! Learn more

10-Day Weather Forecast

Advertisements
Track Severe Weather on mobile